Stations météo

réclame
Mon MeteoGroup
Pajares/Valgrande, Espagne (8031): Température de l'air & dewpoint: 15.10.2017 21:00:00 - 21.10.2017 21:00:00 (CEST)Pajares/Valgrande, Espagne (8031): Vitesse du vent & gusts: 15.10.2017 21:00:00 - 21.10.2017 21:00:00 (CEST)Pajares/Valgrande, Espagne (8031): Direction du vent: 15.10.2017 21:00:00 - 21.10.2017 21:00:00 (CEST)Pajares/Valgrande, Espagne (8031): Quantités de précipitations: 15.10.2017 21:00:00 - 21.10.2017 21:00:00 (CEST)
Date & Time tt [°C] td [°C] ff [km/h] ff [knt] fx [km/h] fx [knt] dd rr [mm]
21.10.2017 21:00:00 - - - - - - - -
21.10.2017 20:00:00 4,9 2,7 7 4 21 12 NW -
21.10.2017 19:00:00 5,7 1,9 4 2 24 13 NW 0,0
21.10.2017 18:00:00 7,0 0,0 11 6 27 14 NW 0,0
21.10.2017 17:00:00 7,5 -0,5 5 3 24 13 WNW 0,0
21.10.2017 16:00:00 7,7 -1,0 5 3 24 13 NNW 0,0
21.10.2017 15:00:00 8,2 -0,5 10 5 22 12 NNE 0,0
21.10.2017 14:00:00 7,5 0,9 5 3 12 6 WNW -
21.10.2017 13:00:00 7,9 1,1 6 3 11 6 N 0,0
21.10.2017 12:00:00 7,6 1,1 3 1 9 5 ENE 0,0
21.10.2017 11:00:00 6,3 1,1 4 2 9 5 NW 0,0
21.10.2017 10:00:00 5,3 2,3 0 0 11 6 WNW 0,0
21.10.2017 09:00:00 5,0 2,3 4 2 14 8 SW 0,0
21.10.2017 08:00:00 7,1 3,2 1 1 23 12 WNW -
21.10.2017 07:00:00 8,7 5,0 5 3 34 18 SSW 0,0
21.10.2017 06:00:00 9,9 8,0 5 3 23 12 N 0,0
21.10.2017 05:00:00 10,8 7,4 14 8 31 17 S 0,5
21.10.2017 04:00:00 11,5 8,4 12 7 41 22 SSW 0,0
21.10.2017 03:00:00 11,6 7,8 17 9 44 24 SSW 0,0
21.10.2017 02:00:00 11,7 7,0 11 6 37 20 SSW -
21.10.2017 01:00:00 11,6 6,2 13 7 45 25 S 0,0
21.10.2017 00:00:00 12,1 5,9 19 10 57 31 S 0,0
20.10.2017 23:00:00 12,7 5,6 37 20 68 37 SSW 0,0
20.10.2017 22:00:00 12,7 5,8 45 25 67 36 SSW 0,0
20.10.2017 21:00:00 12,6 6,8 26 14 51 28 SSW 0,0
20.10.2017 20:00:00 12,7 7,4 22 12 56 31 S -
20.10.2017 19:00:00 13,2 6,1 35 19 65 35 SSW 0,0
20.10.2017 18:00:00 13,9 5,5 21 11 46 25 SSW 0,0
20.10.2017 17:00:00 14,9 7,4 11 6 29 16 S 0,0
20.10.2017 16:00:00 14,1 5,9 18 10 28 15 SSE 0,0
20.10.2017 15:00:00 13,2 6,5 17 9 32 17 ESE 0,0
20.10.2017 14:00:00 14,0 6,5 11 6 35 19 S -
20.10.2017 13:00:00 11,8 5,1 16 9 30 16 S 0,0
20.10.2017 12:00:00 12,1 1,7 16 9 37 20 S 0,0
20.10.2017 11:00:00 9,8 3,6 22 12 39 21 S 0,0
20.10.2017 10:00:00 7,6 4,6 28 15 42 23 S 0,0
20.10.2017 09:00:00 7,5 5,0 23 12 36 20 S 0,0
20.10.2017 08:00:00 8,1 5,6 24 13 38 20 S -
20.10.2017 07:00:00 7,7 5,9 17 9 32 17 S 0,0
20.10.2017 06:00:00 7,8 6,2 18 10 32 17 S 0,0
20.10.2017 05:00:00 7,8 6,4 20 11 32 17 SSE 0,0
20.10.2017 04:00:00 7,6 5,8 14 7 32 17 SSE 0,0
20.10.2017 03:00:00 8,0 5,9 13 7 33 18 S 0,0
20.10.2017 02:00:00 8,9 5,6 10 5 23 12 S -
20.10.2017 01:00:00 10,4 5,9 11 6 29 16 S 0,0
20.10.2017 00:00:00 10,8 5,8 16 8 39 21 S 0,0
19.10.2017 23:00:00 10,9 7,0 11 6 33 18 SW 0,0
19.10.2017 22:00:00 11,1 6,8 12 6 27 14 SSW 0,1
19.10.2017 21:00:00 10,9 6,7 14 8 25 13 SSW 0,0
19.10.2017 20:00:00 9,9 6,4 13 7 24 13 SSE -
19.10.2017 19:00:00 9,9 5,6 11 6 36 19 S 0,3
19.10.2017 18:00:00 10,9 5,6 16 8 41 22 SSW 0,0
19.10.2017 17:00:00 10,2 4,5 17 9 33 18 SSW 0,0
19.10.2017 16:00:00 8,4 2,5 22 12 30 16 SSE 0,0
19.10.2017 15:00:00 9,0 2,3 13 7 28 15 S 0,0
19.10.2017 14:00:00 9,3 2,5 16 9 32 18 S -
19.10.2017 13:00:00 8,0 2,1 17 9 30 16 SSE 0,0
19.10.2017 12:00:00 7,3 0,9 16 9 28 15 SSE 0,0
19.10.2017 11:00:00 6,1 0,2 17 9 28 15 SSE 0,0
19.10.2017 10:00:00 5,2 0,6 22 12 29 16 SSE 0,0
19.10.2017 09:00:00 3,9 0,4 18 10 28 15 SSE 0,0
19.10.2017 08:00:00 4,2 0,2 14 8 22 12 SSE -
19.10.2017 07:00:00 4,1 0,4 16 9 20 11 S 0,0
19.10.2017 06:00:00 2,9 0,2 10 6 14 7 SSW 0,0
19.10.2017 05:00:00 2,6 0,4 8 4 11 6 SSW 0,0
19.10.2017 04:00:00 2,5 0,9 8 4 10 5 SSW 0,0
19.10.2017 03:00:00 2,4 0,9 8 4 10 6 SSW 0,0
19.10.2017 02:00:00 2,6 1,1 7 4 10 5 SSW -
19.10.2017 01:00:00 2,9 1,9 5 3 8 4 S 0,0
19.10.2017 00:00:00 4,4 3,6 0 0 8 4 NW 0,0
18.10.2017 23:00:00 4,6 3,9 1 0 9 5 NNW 0,0
18.10.2017 22:00:00 4,4 3,6 3 1 16 9 NW 0,0
18.10.2017 21:00:00 4,5 3,6 7 4 17 9 NW 1,6
18.10.2017 20:00:00 4,9 3,8 3 1 8 5 NW -
18.10.2017 19:00:00 5,1 3,8 3 2 9 5 NW 0,0
18.10.2017 18:00:00 5,4 4,1 3 2 13 7 WNW 0,2
18.10.2017 17:00:00 5,4 4,5 5 3 14 7 NNW 0,5
18.10.2017 16:00:00 5,7 4,6 3 2 8 4 NNW 0,0
18.10.2017 15:00:00 6,0 4,8 4 2 10 6 N 0,0
18.10.2017 14:00:00 5,7 4,5 4 2 14 8 NNE -
18.10.2017 13:00:00 5,8 4,3 7 4 19 10 WNW 2,4
18.10.2017 12:00:00 5,9 4,5 10 5 23 12 ESE 1,5
18.10.2017 11:00:00 5,9 4,5 14 7 33 18 ESE 1,3
18.10.2017 10:00:00 5,8 4,3 13 7 30 16 SE 0,8
18.10.2017 09:00:00 5,8 4,3 18 10 36 19 S 1,4
18.10.2017 08:00:00 6,1 4,6 19 10 39 21 S -
18.10.2017 07:00:00 5,8 4,3 13 7 46 25 S 1,0
18.10.2017 06:00:00 5,7 3,6 24 13 54 29 S 0,8
18.10.2017 05:00:00 5,9 3,6 29 16 54 29 S 1,1
18.10.2017 04:00:00 6,2 3,9 22 12 47 25 SSE 1,4
18.10.2017 03:00:00 6,7 3,0 24 13 72 39 S 0,3
18.10.2017 02:00:00 7,4 2,5 16 9 39 21 SE -
18.10.2017 01:00:00 7,7 2,5 13 7 38 20 SSE 0,0
18.10.2017 00:00:00 8,0 2,5 18 10 40 22 S 0,0
17.10.2017 23:00:00 7,8 2,5 20 11 40 22 SSE 0,0
17.10.2017 22:00:00 7,9 2,7 23 13 41 22 S 0,0
17.10.2017 21:00:00 8,4 3,8 19 10 40 21 S 0,0
17.10.2017 20:00:00 8,4 3,6 24 13 39 21 S -
17.10.2017 19:00:00 9,2 3,9 22 12 50 27 S 0,0
17.10.2017 18:00:00 10,3 4,8 24 13 48 26 SSE 0,0
17.10.2017 17:00:00 11,1 6,8 21 11 52 28 SSE 0,0
17.10.2017 16:00:00 11,1 8,3 19 10 49 26 S 0,0
17.10.2017 15:00:00 10,7 8,8 17 9 48 26 S 0,1
17.10.2017 14:00:00 10,2 8,8 23 12 44 24 S -
17.10.2017 13:00:00 10,8 9,4 23 13 50 27 S 3,2
17.10.2017 12:00:00 10,5 8,7 24 13 57 31 S 1,0
17.10.2017 11:00:00 10,7 8,9 23 13 52 28 S 2,0
17.10.2017 10:00:00 10,8 8,5 22 12 50 27 S 4,4
17.10.2017 09:00:00 10,1 8,0 22 12 53 29 S 1,6
17.10.2017 08:00:00 11,1 7,3 22 12 47 25 S -
17.10.2017 07:00:00 11,0 7,0 16 9 42 23 S 0,0
17.10.2017 06:00:00 10,9 6,4 19 10 40 22 SE 0,0
17.10.2017 05:00:00 12,0 5,8 19 11 47 26 S 0,0
17.10.2017 04:00:00 12,8 5,6 24 13 53 29 S 0,0
17.10.2017 03:00:00 13,3 5,6 25 13 44 24 S 0,0
17.10.2017 02:00:00 13,8 5,9 26 14 50 27 S -
17.10.2017 01:00:00 14,2 5,8 22 12 44 24 S 0,0
17.10.2017 00:00:00 14,4 5,8 22 12 41 22 S 0,0
16.10.2017 23:00:00 13,6 5,8 16 9 34 18 S 0,0
16.10.2017 22:00:00 13,9 5,8 21 11 38 20 S 0,0
16.10.2017 21:00:00 13,3 6,4 17 9 32 17 S 0,0
16.10.2017 20:00:00 12,3 6,5 13 7 34 18 S -
16.10.2017 19:00:00 12,5 7,0 15 8 44 24 ESE 0,0
16.10.2017 18:00:00 12,7 7,0 20 11 44 24 ESE 0,0
16.10.2017 17:00:00 12,9 6,7 27 14 50 27 S 0,0
16.10.2017 16:00:00 12,3 7,0 23 12 47 26 S 0,5
16.10.2017 15:00:00 12,9 5,6 26 14 42 23 SSE 0,0
16.10.2017 14:00:00 14,1 5,1 21 11 37 20 ESE -
16.10.2017 13:00:00 13,0 4,5 16 9 36 19 SE 0,0
16.10.2017 12:00:00 12,6 3,8 15 8 41 22 SE 0,0
16.10.2017 11:00:00 12,2 3,2 23 12 72 39 SE 0,0
16.10.2017 10:00:00 12,7 3,0 19 10 36 19 SE 0,0
16.10.2017 09:00:00 13,0 2,9 16 9 34 18 SE 0,0
16.10.2017 08:00:00 14,2 2,7 18 10 40 22 SSE -
16.10.2017 07:00:00 15,8 3,2 18 10 40 22 S 0,0
16.10.2017 06:00:00 16,1 3,6 16 8 59 32 SSE 0,0
16.10.2017 05:00:00 16,2 3,6 19 11 73 40 S 0,0
16.10.2017 04:00:00 16,8 4,1 12 6 51 28 S 0,0
16.10.2017 03:00:00 17,1 4,5 19 10 71 38 SSE 0,0
16.10.2017 02:00:00 16,8 4,5 29 16 66 35 SSE -
16.10.2017 01:00:00 17,1 4,5 24 13 74 40 S 0,0
16.10.2017 00:00:00 17,9 5,1 31 17 67 36 S 0,0
15.10.2017 23:00:00 17,7 5,0 22 12 48 26 S 0,0
15.10.2017 22:00:00 17,5 4,8 16 9 38 20 S 0,0
15.10.2017 21:00:00 17,5 4,8 15 8 54 29 SE 0,0

tt = Température de l'air
td = dewpoint
ff = Vitesse du vent
fx = gusts
dd = Direction du vent
rr = Quantités de précipitations

stations d'obs. à proximité